Time;durP1;ratioP1;P1;durP2;ratioP2;P2;SDS_P1;SDS_P2;PMS_P1;PMS_P2;Temp;Humidity;BMP_temperature;BMP_pressure;BME280_temperature;BME280_humidity;BME280_pressure;Samples;Min_cycle;Max_cycle;Signal;HPM_P1;HPM_P2
2021/08/31 00:00:10;;;;;;;19.90;13.32;;;;;;;15.62;100.00;102250.38;10460131;28;20056;-66
2021/08/31 00:05:13;;;;;;;25.42;17.58;;;;;;;15.35;100.00;102252.75;10460013;28;20045;-67
2021/08/31 00:10:15;;;;;;;23.05;16.77;;;;;;;15.57;100.00;102250.63;10460704;28;20048;-67
2021/08/31 00:15:18;;;;;;;21.38;17.00;;;;;;;15.17;100.00;102252.78;10460360;28;20048;-67
2021/08/31 00:20:20;;;;;;;24.23;15.60;;;;;;;15.49;100.00;102260.75;10459531;28;20480;-68
2021/08/31 00:25:23;;;;;;;21.85;16.98;;;;;;;15.19;100.00;102264.09;10459435;28;20052;-67
2021/08/31 00:30:25;;;;;;;30.55;18.90;;;;;;;15.33;100.00;102262.50;10459179;28;20056;-67
2021/08/31 00:35:27;;;;;;;24.70;17.63;;;;;;;15.40;100.00;102266.53;10459640;28;20059;-67
2021/08/31 00:40:30;;;;;;;23.50;16.52;;;;;;;15.22;100.00;102260.47;10458868;28;20055;-67
2021/08/31 00:45:35;;;;;;;24.27;18.52;;;;;;;15.15;100.00;102264.38;10458698;28;20055;-68
2021/08/31 00:50:39;;;;;;;26.08;17.08;;;;;;;15.41;100.00;102262.94;10458368;28;20064;-66
2021/08/31 00:55:44;;;;;;;24.33;17.27;;;;;;;15.22;100.00;102258.66;10458526;28;20064;-67
2021/08/31 01:00:47;;;;;;;25.58;18.95;;;;;;;14.87;100.00;102265.81;10457944;28;20045;-68
2021/08/31 01:05:49;;;;;;;24.73;18.65;;;;;;;14.92;100.00;102268.22;10457722;28;20461;-69
2021/08/31 01:10:53;;;;;;;28.08;18.30;;;;;;;15.08;100.00;102277.03;10457778;28;20045;-68
2021/08/31 01:15:55;;;;;;;26.95;18.10;;;;;;;14.95;100.00;102279.47;10457581;28;20064;-69
2021/08/31 01:20:59;;;;;;;24.52;17.42;;;;;;;15.28;100.00;102283.03;10457122;28;20056;-68
2021/08/31 01:26:02;;;;;;;26.70;18.50;;;;;;;15.36;100.00;102283.47;10457684;28;20064;-68
2021/08/31 01:31:05;;;;;;;28.20;17.48;;;;;;;15.42;100.00;102283.97;10456899;28;20059;-69
2021/08/31 01:36:24;;;;;;;29.05;20.60;;;;;;;15.29;100.00;102290.00;10457004;28;20049;-68
2021/08/31 01:41:27;;;;;;;25.83;17.75;;;;;;;15.62;100.00;102292.63;10456641;28;20055;-69
2021/08/31 01:46:30;;;;;;;27.48;18.15;;;;;;;15.54;100.00;102302.75;10456427;28;20061;-68
2021/08/31 01:51:32;;;;;;;25.88;17.58;;;;;;;15.54;100.00;102300.09;10457038;28;20060;-67
2021/08/31 01:56:35;;;;;;;31.27;21.30;;;;;;;15.41;100.00;102305.19;10456283;28;20063;-68
2021/08/31 02:01:40;;;;;;;27.60;19.30;;;;;;;15.49;100.00;102310.06;10456484;28;20056;-68
2021/08/31 02:06:43;;;;;;;35.65;20.63;;;;;;;15.39;100.00;102307.06;10456373;28;20055;-68
2021/08/31 02:11:45;;;;;;;32.03;20.30;;;;;;;15.41;100.00;102313.94;10456316;28;20053;-68
2021/08/31 02:16:48;;;;;;;30.88;21.60;;;;;;;15.31;100.00;102311.88;10456045;28;20412;-67
2021/08/31 02:21:50;;;;;;;30.55;20.40;;;;;;;15.29;100.00;102316.41;10456262;28;20053;-68
2021/08/31 02:26:52;;;;;;;32.85;22.10;;;;;;;15.36;100.00;102315.97;10456035;28;20048;-68
2021/08/31 02:31:55;;;;;;;31.60;20.88;;;;;;;15.47;100.00;102311.94;10462377;28;20048;-69
2021/08/31 02:36:57;;;;;;;27.20;17.92;;;;;;;15.58;100.00;102322.75;10463768;28;20056;-69
2021/08/31 02:41:59;;;;;;;30.00;20.98;;;;;;;15.51;100.00;102322.22;10463582;28;20041;-69
2021/08/31 02:47:03;;;;;;;32.40;22.40;;;;;;;15.66;100.00;102315.25;10463962;28;20041;-68
2021/08/31 02:52:06;;;;;;;33.53;21.60;;;;;;;15.54;100.00;102305.38;10463210;28;20052;-69
2021/08/31 02:57:09;;;;;;;28.60;21.63;;;;;;;15.39;100.00;102307.06;10463561;28;20052;-68
2021/08/31 03:02:11;;;;;;;30.23;21.73;;;;;;;15.35;100.00;102300.25;10462991;28;20063;-68
2021/08/31 03:07:15;;;;;;;25.02;18.60;;;;;;;15.38;100.00;102313.25;10462983;28;20045;-68
2021/08/31 03:12:17;;;;;;;28.70;20.83;;;;;;;15.28;100.00;102304.13;10462885;28;20045;-69
2021/08/31 03:17:20;;;;;;;31.13;20.20;;;;;;;15.31;100.00;102306.59;10462091;28;20044;-68
2021/08/31 03:22:22;;;;;;;27.55;20.40;;;;;;;15.33;100.00;102300.34;10462306;28;20075;-68
2021/08/31 03:27:24;;;;;;;40.85;21.60;;;;;;;15.28;100.00;102296.22;10461672;28;20061;-68
2021/08/31 03:32:26;;;;;;;25.48;18.23;;;;;;;15.54;100.00;102308.00;10461496;28;20041;-67
2021/08/31 03:37:29;;;;;;;31.15;20.88;;;;;;;15.52;100.00;102300.19;10461337;28;20045;-69
2021/08/31 03:42:31;;;;;;;27.50;18.23;;;;;;;15.32;100.00;102301.25;10459977;28;20041;-67
2021/08/31 03:47:33;;;;;;;31.58;19.42;;;;;;;15.28;100.00;102309.41;10460910;28;20045;-68
2021/08/31 03:52:36;;;;;;;27.15;16.48;;;;;;;15.47;100.00;102312.78;10460943;28;20049;-68
2021/08/31 03:57:38;;;;;;;21.65;15.50;;;;;;;15.62;100.00;102316.38;10460441;28;20080;-68
2021/08/31 04:02:40;;;;;;;25.48;16.25;;;;;;;15.55;100.00;102326.41;10460902;28;20049;-68
2021/08/31 04:07:43;;;;;;;23.27;14.10;;;;;;;15.51;100.00;102324.00;10460403;28;20408;-69
2021/08/31 04:12:45;;;;;;;24.15;14.32;;;;;;;15.59;100.00;102330.56;10460035;28;20535;-69
2021/08/31 04:17:47;;;;;;;25.33;14.63;;;;;;;15.50;100.00;102330.22;10459810;28;20044;-69
2021/08/31 04:22:50;;;;;;;18.63;13.75;;;;;;;15.66;100.00;102330.25;10459821;28;20053;-68
2021/08/31 04:27:52;;;;;;;23.25;14.65;;;;;;;15.37;100.00;102333.53;10459287;28;20071;-68
2021/08/31 04:32:54;;;;;;;21.50;13.93;;;;;;;15.63;100.00;102333.06;10459949;28;20045;-69
2021/08/31 04:37:57;;;;;;;22.88;13.95;;;;;;;15.68;100.00;102344.22;10458918;28;20485;-68
2021/08/31 04:42:59;;;;;;;28.02;15.80;;;;;;;15.56;100.00;102351.84;10458799;28;20465;-68
2021/08/31 04:48:02;;;;;;;23.13;13.85;;;;;;;15.57;100.00;102347.44;10458447;28;20051;-68
2021/08/31 04:53:04;;;;;;;26.67;16.33;;;;;;;15.47;100.00;102357.66;10458120;28;20045;-68
2021/08/31 04:58:07;;;;;;;26.80;15.32;;;;;;;15.62;100.00;102361.25;10458656;28;20056;-68
2021/08/31 05:03:09;;;;;;;20.98;13.32;;;;;;;15.88;100.00;102375.69;10458135;28;20049;-68
2021/08/31 05:08:11;;;;;;;26.23;14.65;;;;;;;15.70;100.00;102379.31;10457753;28;20049;-69
2021/08/31 05:13:14;;;;;;;25.10;14.90;;;;;;;15.84;100.00;102384.72;10457884;28;20072;-68
2021/08/31 05:18:16;;;;;;;20.35;13.18;;;;;;;15.61;100.00;102375.38;10457966;28;20053;-68
2021/08/31 05:23:18;;;;;;;19.52;12.73;;;;;;;15.55;100.00;102373.94;10456337;28;20064;-69
2021/08/31 05:28:21;;;;;;;20.00;12.63;;;;;;;15.66;100.00;102383.06;10457033;28;20041;-68
2021/08/31 05:33:23;;;;;;;26.27;12.98;;;;;;;15.74;100.00;102378.22;10457385;28;20045;-68
2021/08/31 05:38:25;;;;;;;21.02;12.20;;;;;;;15.84;100.00;102389.19;10455632;28;20053;-69
2021/08/31 05:43:28;;;;;;;23.42;12.15;;;;;;;16.01;100.00;102397.00;10457118;28;20045;-69
2021/08/31 05:48:30;;;;;;;19.00;11.20;;;;;;;15.95;100.00;102398.22;10456451;28;20477;-68
2021/08/31 05:53:33;;;;;;;19.02;11.80;;;;;;;15.66;100.00;102407.66;10456565;28;20045;-68
2021/08/31 05:58:35;;;;;;;27.85;11.52;;;;;;;15.93;100.00;102413.28;10456919;28;20055;-68
2021/08/31 06:03:37;;;;;;;18.20;10.40;;;;;;;15.74;100.00;102410.75;10457317;28;20052;-69
2021/08/31 06:08:39;;;;;;;16.15;9.73;;;;;;;16.14;100.00;102408.63;10464366;28;20044;-68
2021/08/31 06:13:42;;;;;;;13.50;8.18;;;;;;;16.18;100.00;102411.09;10464823;28;20049;-68
2021/08/31 06:18:44;;;;;;;15.68;9.43;;;;;;;16.11;100.00;102413.22;10464621;28;20052;-68
2021/08/31 06:23:46;;;;;;;14.50;8.88;;;;;;;16.12;100.00;102414.91;10464676;28;20053;-68
2021/08/31 06:28:49;;;;;;;17.98;9.57;;;;;;;15.92;100.00;102411.59;10464511;28;20052;-69
2021/08/31 06:33:51;;;;;;;15.88;8.27;;;;;;;15.82;100.00;102407.75;10464268;28;20048;-68
2021/08/31 06:38:54;;;;;;;13.95;7.55;;;;;;;16.18;100.00;102409.28;10463544;28;20055;-69
2021/08/31 06:43:56;;;;;;;16.98;7.97;;;;;;;15.93;100.00;102405.34;10463910;28;20049;-69
2021/08/31 06:48:58;;;;;;;17.20;8.07;;;;;;;16.14;100.00;102418.34;10463415;28;20421;-68
2021/08/31 06:54:01;;;;;;;16.58;8.77;;;;;;;16.16;100.00;102427.03;10462945;28;20056;-69
2021/08/31 06:59:03;;;;;;;17.90;7.75;;;;;;;16.55;100.00;102428.38;10463004;28;20045;-68
2021/08/31 07:04:05;;;;;;;17.75;8.48;;;;;;;16.18;100.00;102429.59;10462707;28;20060;-68
2021/08/31 07:09:08;;;;;;;13.35;7.22;;;;;;;16.44;100.00;102436.91;10462546;28;20045;-69
2021/08/31 07:14:10;;;;;;;15.98;8.35;;;;;;;16.41;100.00;102437.09;10462132;28;20063;-68
2021/08/31 07:19:12;;;;;;;13.20;6.30;;;;;;;16.48;100.00;102450.81;10462139;28;20045;-69
2021/08/31 07:24:15;;;;;;;16.35;8.85;;;;;;;16.44;100.00;102443.97;10461746;28;20127;-68
2021/08/31 07:29:17;;;;;;;13.88;7.63;;;;;;;16.66;100.00;102447.13;10462324;28;20063;-68
2021/08/31 07:34:20;;;;;;;11.13;7.03;;;;;;;16.86;100.00;102440.72;10461400;28;20512;-68
2021/08/31 07:39:22;;;;;;;16.08;7.25;;;;;;;17.12;100.00;102446.28;10460064;28;20396;-69
2021/08/31 07:44:25;;;;;;;18.88;7.20;;;;;;;17.28;100.00;102448.84;10461918;28;20044;-69
2021/08/31 07:49:27;;;;;;;13.65;7.50;;;;;;;17.55;100.00;102456.09;10461247;28;20052;-68
2021/08/31 07:54:30;;;;;;;20.63;8.07;;;;;;;17.41;100.00;102451.63;10460800;28;20056;-67
2021/08/31 07:59:33;;;;;;;13.85;8.18;;;;;;;17.40;100.00;102455.22;10460355;28;20493;-69
2021/08/31 08:04:35;;;;;;;19.65;7.63;;;;;;;17.22;100.00;102460.66;10460310;28;20041;-68
2021/08/31 08:09:37;;;;;;;16.40;7.78;;;;;;;17.01;100.00;102464.56;10459864;28;20408;-68
2021/08/31 08:14:40;;;;;;;12.10;6.50;;;;;;;17.57;100.00;102456.88;10460179;28;20049;-68
2021/08/31 08:19:42;;;;;;;10.98;6.70;;;;;;;18.06;100.00;102463.59;10460103;28;20477;-68
2021/08/31 08:24:45;;;;;;;15.35;6.25;;;;;;;18.24;100.00;102464.22;10459686;28;20052;-69
2021/08/31 08:29:47;;;;;;;14.95;6.45;;;;;;;18.27;99.32;102461.38;10458411;28;20049;-69
2021/08/31 08:34:49;;;;;;;12.90;6.30;;;;;;;18.62;97.28;102460.91;10459094;28;20485;-69
2021/08/31 08:39:52;;;;;;;16.88;6.93;;;;;;;18.20;100.00;102479.47;10459176;28;20412;-68
2021/08/31 08:44:55;;;;;;;10.50;5.85;;;;;;;18.19;100.00;102475.16;10458838;28;20052;-68
2021/08/31 08:49:57;;;;;;;14.30;6.15;;;;;;;18.33;100.00;102474.25;10458806;28;20052;-69
2021/08/31 08:54:59;;;;;;;12.25;5.35;;;;;;;18.39;97.71;102471.19;10473482;28;20501;-68
2021/08/31 09:00:08;;;;;;;17.35;6.25;;;;;;;19.33;94.71;102462.38;10456863;28;20493;-69
2021/08/31 09:05:30;;;;;;;13.57;5.28;;;;;;;19.20;93.16;102466.81;10458609;28;20103;-69
2021/08/31 09:10:34;;;;;;;16.77;5.82;;;;;;;19.19;91.88;102470.44;10457887;28;20049;-69
2021/08/31 09:15:41;;;;;;;12.07;5.50;;;;;;;19.90;94.88;102484.22;10457739;28;20063;-69
2021/08/31 09:20:55;;;;;;;8.85;5.13;;;;;;;19.36;88.17;102477.28;10457552;28;20045;-68
2021/08/31 09:26:07;;;;;;;10.65;5.72;;;;;;;19.48;88.11;102489.69;10457373;28;20059;-68
2021/08/31 09:31:14;;;;;;;13.93;4.45;;;;;;;19.53;88.53;102489.41;10457398;28;20124;-69
2021/08/31 09:36:22;;;;;;;8.02;5.47;;;;;;;18.56;91.15;102488.69;10457059;28;20086;-68
2021/08/31 09:41:32;;;;;;;7.22;4.38;;;;;;;20.13;88.16;102491.41;10456993;28;20053;-69
2021/08/31 09:46:59;;;;;;;8.87;4.30;;;;;;;19.76;81.79;102494.00;10456884;28;20139;-68
2021/08/31 09:52:04;;;;;;;7.70;4.20;;;;;;;21.27;78.28;102487.53;10455719;28;20056;-68
2021/08/31 09:57:30;;;;;;;10.02;5.28;;;;;;;22.81;74.41;102483.34;10456349;28;20056;-68
2021/08/31 10:02:32;;;;;;;6.60;3.97;;;;;;;22.21;74.00;102491.75;10456532;28;20049;-69
2021/08/31 10:07:36;;;;;;;7.80;4.70;;;;;;;20.55;78.69;102497.25;10456198;28;20049;-69
2021/08/31 10:12:39;;;;;;;6.95;4.43;;;;;;;22.57;73.63;102488.91;10456492;28;20386;-68
2021/08/31 10:17:44;;;;;;;8.52;4.25;;;;;;;22.55;67.10;102488.19;10454832;28;20052;-68
2021/08/31 10:22:47;;;;;;;8.13;4.75;;;;;;;23.73;66.51;102483.56;10455019;28;20053;-68
2021/08/31 10:27:50;;;;;;;10.55;4.03;;;;;;;24.96;60.86;102484.28;10454596;28;20403;-69
2021/08/31 10:32:56;;;;;;;7.75;3.67;;;;;;;24.30;59.76;102480.41;10455889;28;20049;-68
2021/08/31 10:38:01;;;;;;;9.50;4.38;;;;;;;24.38;66.05;102483.25;10456277;28;20130;-68
2021/08/31 10:43:06;;;;;;;9.90;4.03;;;;;;;24.88;60.65;102481.47;10455644;28;20045;-69
2021/08/31 10:48:23;;;;;;;8.73;4.47;;;;;;;24.19;65.68;102478.72;10454118;28;20492;-68
2021/08/31 10:53:40;;;;;;;6.72;3.70;;;;;;;24.76;61.81;102478.09;10462129;28;20041;-69
2021/08/31 10:58:47;;;;;;;8.80;4.10;;;;;;;22.45;66.27;102485.41;10462823;28;20052;-68
2021/08/31 11:03:52;;;;;;;5.10;3.63;;;;;;;22.51;67.32;102489.41;10462845;28;20080;-68
2021/08/31 11:09:14;;;;;;;11.73;4.63;;;;;;;24.04;64.29;102483.59;10463169;28;20044;-69
2021/08/31 11:14:17;;;;;;;8.23;4.35;;;;;;;25.54;59.55;102472.66;10461273;28;20523;-67
2021/08/31 11:19:27;;;;;;;7.78;4.75;;;;;;;24.59;55.17;102480.47;10461449;28;20049;-67
2021/08/31 11:24:30;;;;;;;;;;;;;;;25.39;58.14;102478.47;10462628;28;20053;-67
2021/08/31 11:29:32;;;;;;;9.45;4.45;;;;;;;25.82;54.72;102470.81;10461531;28;19925;-67
2021/08/31 11:34:34;;;;;;;6.65;4.30;;;;;;;24.96;57.75;102473.56;10461736;28;20055;-67
2021/08/31 11:39:37;;;;;;;6.25;4.10;;;;;;;24.41;58.17;102471.41;10460401;28;20053;-67
2021/08/31 11:44:57;;;;;;;7.63;3.70;;;;;;;23.09;62.46;102467.72;10461514;28;20041;-66
2021/08/31 11:50:01;;;;;;;6.18;3.83;;;;;;;22.43;69.56;102472.19;10461051;28;20487;-67
2021/08/31 11:55:03;;;;;;;9.43;4.18;;;;;;;26.41;56.15;102467.81;10460967;28;20072;-67
2021/08/31 12:00:07;;;;;;;4.82;3.55;;;;;;;25.26;54.15;102464.53;10460554;28;20041;-66
2021/08/31 12:05:10;;;;;;;7.88;4.90;;;;;;;24.76;53.05;102470.88;10460321;28;20048;-67
2021/08/31 12:10:18;;;;;;;8.00;4.20;;;;;;;25.86;56.34;102477.59;10460245;28;20053;-67
2021/08/31 12:15:24;;;;;;;6.15;4.03;;;;;;;26.15;52.83;102471.25;10458779;28;20056;-67
2021/08/31 12:20:27;;;;;;;7.13;3.88;;;;;;;24.39;54.95;102473.38;10458683;28;20056;-66
2021/08/31 12:25:53;;;;;;;5.47;3.03;;;;;;;28.05;47.20;102465.50;10459652;28;20053;-67
2021/08/31 12:30:56;;;;;;;6.50;3.58;;;;;;;26.88;46.00;102464.94;10459791;28;20398;-67
2021/08/31 12:36:16;;;;;;;6.60;3.47;;;;;;;25.11;55.28;102468.63;10459222;28;20059;-66
2021/08/31 12:41:24;;;;;;;4.95;3.35;;;;;;;25.54;52.52;102470.81;10459299;28;20041;-67
2021/08/31 12:46:29;;;;;;;6.20;3.25;;;;;;;27.36;49.27;102469.00;10458955;28;20049;-66
2021/08/31 12:51:33;;;;;;;4.97;3.15;;;;;;;26.87;52.91;102474.84;10458677;28;20045;-66
2021/08/31 12:56:57;;;;;;;7.68;3.40;;;;;;;25.35;49.36;102476.22;10458350;28;20102;-67
2021/08/31 13:02:02;;;;;;;4.75;2.88;;;;;;;27.15;46.24;102473.88;10458266;28;20048;-67
2021/08/31 13:07:13;;;;;;;5.10;3.05;;;;;;;26.91;47.15;102466.47;10457970;28;20476;-67
2021/08/31 13:12:17;;;;;;;5.50;3.38;;;;;;;27.44;48.87;102468.22;10457431;28;20401;-67
2021/08/31 13:17:19;;;;;;;6.85;3.30;;;;;;;24.61;51.96;102462.47;10457694;28;20071;-67
2021/08/31 13:22:21;;;;;;;6.95;4.32;;;;;;;28.13;46.35;102458.28;10458057;28;20052;-66
2021/08/31 13:27:24;;;;;;;6.78;3.15;;;;;;;26.74;47.90;102452.91;10457321;28;20049;-66
2021/08/31 13:32:26;;;;;;;7.25;4.43;;;;;;;26.03;50.71;102457.19;10457551;28;20055;-67
2021/08/31 13:37:29;;;;;;;6.90;3.85;;;;;;;25.14;55.62;102455.78;10457370;28;20064;-66
2021/08/31 13:42:31;;;;;;;9.73;3.70;;;;;;;25.97;53.23;102455.09;10456696;28;20489;-67
2021/08/31 13:47:34;;;;;;;6.57;3.63;;;;;;;28.25;48.63;102442.66;10456488;28;20041;-67
2021/08/31 13:52:36;;;;;;;6.68;2.83;;;;;;;26.05;53.37;102444.47;10456465;28;20528;-67
2021/08/31 13:57:38;;;;;;;9.25;3.45;;;;;;;23.82;57.97;102447.19;10456429;28;20497;-67
2021/08/31 14:02:42;;;;;;;14.30;3.83;;;;;;;24.59;61.28;102445.66;10456483;28;20049;-66
2021/08/31 14:07:45;;;;;;;6.60;2.67;;;;;;;26.51;49.98;102444.44;10456131;28;20371;-66
2021/08/31 14:12:47;;;;;;;7.70;3.35;;;;;;;27.79;50.54;102443.00;10456544;28;20053;-67
2021/08/31 14:17:49;;;;;;;5.25;3.22;;;;;;;26.79;45.95;102442.53;10456463;28;20053;-66
2021/08/31 14:22:53;;;;;;;5.20;3.47;;;;;;;24.07;55.24;102456.56;10456363;28;20060;-66
2021/08/31 14:27:56;;;;;;;7.10;3.50;;;;;;;23.41;60.77;102459.63;10462154;28;20057;-66
2021/08/31 14:32:58;;;;;;;6.43;3.90;;;;;;;24.84;57.13;102449.59;10464465;28;20381;-68
2021/08/31 14:38:00;;;;;;;8.57;3.30;;;;;;;26.37;50.16;102445.81;10464617;28;20049;-67
2021/08/31 14:43:04;;;;;;;7.63;3.60;;;;;;;26.22;48.22;102434.75;10464000;28;20079;-66
2021/08/31 14:48:06;;;;;;;6.68;3.50;;;;;;;26.63;48.25;102428.94;10463319;28;20436;-67
2021/08/31 14:53:08;;;;;;;7.32;3.72;;;;;;;25.37;53.94;102439.41;10463319;28;20052;-66
2021/08/31 14:58:11;;;;;;;9.52;3.72;;;;;;;23.18;60.88;102446.44;10462967;28;20065;-65
2021/08/31 15:03:13;;;;;;;11.52;3.67;;;;;;;25.72;54.94;102436.03;10463291;28;20049;-67
2021/08/31 15:08:15;;;;;;;8.32;3.38;;;;;;;28.22;50.16;102442.13;10462802;28;20052;-67
2021/08/31 15:13:19;;;;;;;9.93;3.75;;;;;;;24.83;57.46;102455.09;10462843;28;20128;-67
2021/08/31 15:18:21;;;;;;;9.07;4.63;;;;;;;25.12;57.80;102451.56;10462612;28;20053;-67
2021/08/31 15:23:24;;;;;;;9.40;3.45;;;;;;;26.24;55.44;102448.03;10462238;28;20045;-67
2021/08/31 15:28:26;;;;;;;13.73;4.22;;;;;;;24.24;58.16;102444.34;10461856;28;20048;-67
2021/08/31 15:33:28;;;;;;;11.90;4.47;;;;;;;25.77;54.56;102439.09;10461714;28;20500;-66
2021/08/31 15:38:33;;;;;;;7.43;4.28;;;;;;;24.57;58.19;102457.50;10461144;28;20045;-66
2021/08/31 15:43:36;;;;;;;11.45;3.88;;;;;;;23.54;62.06;102454.91;10461933;28;20041;-67
2021/08/31 15:48:39;;;;;;;11.00;4.30;;;;;;;23.37;62.88;102453.69;10461407;28;20052;-66
2021/08/31 15:53:41;;;;;;;10.55;3.45;;;;;;;22.53;65.66;102456.28;10461024;28;20041;-66
2021/08/31 15:58:43;;;;;;;10.43;4.22;;;;;;;21.90;66.24;102458.66;10461320;28;20076;-67
2021/08/31 16:03:46;;;;;;;10.75;4.43;;;;;;;22.65;65.26;102457.09;10460629;28;20401;-67
2021/08/31 16:08:48;;;;;;;11.10;3.40;;;;;;;22.21;69.67;102457.06;10460399;28;20048;-67
2021/08/31 16:13:50;;;;;;;11.38;4.22;;;;;;;21.13;71.09;102460.13;10460067;28;20508;-67
2021/08/31 16:18:53;;;;;;;10.45;4.13;;;;;;;20.61;74.63;102477.34;10460362;28;20056;-67
2021/08/31 16:23:55;;;;;;;8.68;3.75;;;;;;;21.15;73.38;102482.19;10459513;28;20520;-67
2021/08/31 16:28:57;;;;;;;13.15;3.53;;;;;;;20.33;75.12;102479.34;10459463;28;20493;-67
2021/08/31 16:34:00;;;;;;;14.23;3.47;;;;;;;21.11;73.26;102479.84;10459451;28;20049;-66
2021/08/31 16:39:03;;;;;;;10.63;4.40;;;;;;;21.19;73.54;102484.59;10459055;28;20071;-67
2021/08/31 16:44:05;;;;;;;7.22;3.28;;;;;;;21.11;73.70;102479.84;10458792;28;20486;-66
2021/08/31 16:49:07;;;;;;;7.82;3.40;;;;;;;20.52;75.55;102481.50;10458187;28;20049;-68
2021/08/31 16:54:10;;;;;;;8.65;3.75;;;;;;;20.06;76.29;102482.16;10458660;28;20049;-67
2021/08/31 16:59:20;;;;;;;7.47;2.78;;;;;;;19.50;76.16;102482.47;10458584;28;20049;-66
2021/08/31 17:04:24;;;;;;;9.00;3.20;;;;;;;19.53;76.73;102497.38;10458233;28;20439;-68
2021/08/31 17:09:27;;;;;;;11.35;3.95;;;;;;;19.12;79.10;102499.22;10458380;28;20045;-67
2021/08/31 17:14:30;;;;;;;11.65;3.08;;;;;;;19.31;79.99;102504.97;10457897;28;20049;-67
2021/08/31 17:19:33;;;;;;;8.52;3.38;;;;;;;19.00;83.16;102513.31;10457284;28;20500;-67
2021/08/31 17:24:35;;;;;;;12.50;3.20;;;;;;;19.04;83.01;102509.50;10456873;28;20056;-67
2021/08/31 17:29:38;;;;;;;10.85;3.40;;;;;;;18.72;83.88;102509.78;10455709;28;20055;-67
2021/08/31 17:34:40;;;;;;;10.32;3.15;;;;;;;18.51;84.44;102512.03;10455518;28;20051;-68
2021/08/31 17:39:42;;;;;;;7.50;3.38;;;;;;;18.40;84.76;102514.50;10455246;28;20060;-68
2021/08/31 17:44:45;;;;;;;11.52;4.18;;;;;;;18.13;85.64;102518.78;10455166;28;20412;-68
2021/08/31 17:49:47;;;;;;;6.47;3.42;;;;;;;17.96;86.73;102516.31;10454766;28;20519;-68
2021/08/31 17:54:51;;;;;;;11.32;3.67;;;;;;;17.94;87.20;102518.22;10455603;28;20052;-67
2021/08/31 17:59:54;;;;;;;12.40;3.30;;;;;;;17.78;90.80;102526.22;10453764;28;20055;-66
2021/08/31 18:04:57;;;;;;;9.57;3.10;;;;;;;17.88;88.95;102529.19;10454513;28;20047;-67
2021/08/31 18:09:59;;;;;;;12.02;3.97;;;;;;;17.45;89.88;102541.38;10454922;28;20056;-67
2021/08/31 18:15:03;;;;;;;13.00;3.30;;;;;;;17.57;89.80;102534.50;10453384;28;20052;-66
2021/08/31 18:20:06;;;;;;;5.75;3.20;;;;;;;17.75;89.74;102540.50;10454227;28;20060;-67
2021/08/31 18:25:09;;;;;;;10.40;3.30;;;;;;;17.04;92.30;102554.38;10413879;28;1190544;-67
2021/08/31 18:30:13;;;;;;;12.40;4.60;;;;;;;16.95;94.67;102542.50;10454550;28;20045;-68
2021/08/31 18:35:15;;;;;;;12.90;3.95;;;;;;;17.07;93.93;102546.25;10455935;28;20045;-67
2021/08/31 18:40:18;;;;;;;12.80;3.60;;;;;;;17.06;94.24;102549.81;10455800;28;20061;-68
2021/08/31 18:45:21;;;;;;;14.30;4.40;;;;;;;16.72;96.19;102557.00;10455773;28;20049;-67
2021/08/31 18:50:23;;;;;;;11.65;3.50;;;;;;;16.69;96.19;102565.09;10455449;28;20053;-67
2021/08/31 18:55:25;;;;;;;9.48;3.92;;;;;;;16.62;97.24;102569.03;10455898;28;20049;-66
2021/08/31 19:00:28;;;;;;;11.85;4.25;;;;;;;16.40;100.00;102571.97;10455428;28;20059;-68
2021/08/31 19:05:30;;;;;;;8.60;4.35;;;;;;;16.59;98.13;102579.75;10455685;28;20370;-68
2021/08/31 19:10:32;;;;;;;12.70;4.25;;;;;;;16.74;97.18;102580.72;10455879;28;20048;-67
2021/08/31 19:15:35;;;;;;;12.82;4.30;;;;;;;16.48;98.87;102589.13;10462651;28;20045;-68
2021/08/31 19:20:37;;;;;;;9.55;4.60;;;;;;;16.34;99.16;102596.97;10462259;28;20076;-66
2021/08/31 19:25:40;;;;;;;15.82;5.20;;;;;;;16.40;97.95;102595.78;10462379;28;20538;-67
2021/08/31 19:30:43;;;;;;;14.68;4.97;;;;;;;16.32;98.94;102604.09;10461581;28;20497;-67
2021/08/31 19:35:45;;;;;;;8.98;4.13;;;;;;;16.18;100.00;102602.19;10461754;28;20587;-67
2021/08/31 19:40:47;;;;;;;14.45;4.93;;;;;;;16.39;100.00;102605.50;10461483;28;20500;-67
2021/08/31 19:45:50;;;;;;;15.75;4.10;;;;;;;16.59;99.95;102611.50;10461257;28;20056;-67
2021/08/31 19:50:52;;;;;;;13.05;4.93;;;;;;;16.81;98.25;102614.69;10460910;28;20401;-67
2021/08/31 19:55:54;;;;;;;10.48;4.80;;;;;;;16.84;97.49;102611.00;10461945;28;20049;-67
2021/08/31 20:00:57;;;;;;;8.73;3.65;;;;;;;16.67;98.60;102611.94;10460393;28;20045;-67
2021/08/31 20:05:59;;;;;;;8.27;3.70;;;;;;;16.85;94.73;102629.47;10460502;28;20045;-67
2021/08/31 20:11:02;;;;;;;12.48;4.97;;;;;;;16.75;95.35;102624.75;10460319;28;20091;-67
2021/08/31 20:16:04;;;;;;;17.83;3.95;;;;;;;16.59;95.50;102622.06;10459976;28;20494;-68
2021/08/31 20:21:07;;;;;;;10.73;4.20;;;;;;;16.38;95.72;102629.38;10460044;28;20052;-66
2021/08/31 20:26:09;;;;;;;7.85;3.28;;;;;;;16.43;94.34;102625.53;10459321;28;20075;-67
2021/08/31 20:31:11;;;;;;;14.18;4.00;;;;;;;16.56;93.16;102628.38;10460466;28;20041;-67
2021/08/31 20:36:14;;;;;;;10.90;4.20;;;;;;;16.87;93.10;102627.59;10459582;28;20045;-68
2021/08/31 20:41:16;;;;;;;10.75;4.40;;;;;;;16.37;96.20;102620.56;10459275;28;20049;-67
2021/08/31 20:46:18;;;;;;;7.55;3.53;;;;;;;16.36;94.89;102634.75;10459033;28;20041;-67
2021/08/31 20:51:21;;;;;;;9.45;3.70;;;;;;;16.40;94.21;102636.28;10459369;28;20044;-68
2021/08/31 20:56:23;;;;;;;10.20;3.22;;;;;;;16.35;93.50;102656.81;10459015;28;20045;-67
2021/08/31 21:01:26;;;;;;;8.73;2.80;;;;;;;16.20;92.20;102649.69;10458426;28;20056;-67
2021/08/31 21:06:30;;;;;;;10.40;4.25;;;;;;;15.99;91.46;102655.13;10458646;28;20045;-66
2021/08/31 21:11:32;;;;;;;9.15;2.65;;;;;;;16.16;92.93;102657.75;10458109;28;20049;-66
2021/08/31 21:16:35;;;;;;;6.65;2.70;;;;;;;16.23;92.10;102660.94;10457854;28;20143;-67
2021/08/31 21:21:37;;;;;;;10.85;3.13;;;;;;;15.76;92.74;102662.41;10458087;28;20045;-67
2021/08/31 21:26:40;;;;;;;9.10;2.50;;;;;;;16.24;92.67;102667.06;10457750;28;20064;-67
2021/08/31 21:31:42;;;;;;;7.35;3.15;;;;;;;16.40;90.94;102661.84;10457686;28;20048;-67
2021/08/31 21:36:44;;;;;;;9.27;3.72;;;;;;;16.01;92.81;102663.84;10456936;28;20060;-66
2021/08/31 21:41:47;;;;;;;10.55;3.15;;;;;;;16.23;92.62;102666.22;10457111;28;20053;-68
2021/08/31 21:46:49;;;;;;;9.52;2.97;;;;;;;16.37;91.13;102672.59;10457008;28;20049;-67
2021/08/31 21:51:52;;;;;;;16.02;3.30;;;;;;;16.26;93.23;102676.66;10456716;28;20485;-68
2021/08/31 21:56:54;;;;;;;12.48;3.47;;;;;;;16.27;92.60;102669.56;10456761;28;20056;-67
2021/08/31 22:01:56;;;;;;;8.02;3.17;;;;;;;16.06;93.26;102677.66;10456543;28;20052;-68
2021/08/31 22:06:59;;;;;;;11.48;3.95;;;;;;;16.21;94.01;102673.38;10456121;28;20378;-67
2021/08/31 22:12:01;;;;;;;11.93;3.70;;;;;;;16.45;92.11;102673.03;10456702;28;20045;-67
2021/08/31 22:17:04;;;;;;;9.38;3.45;;;;;;;16.24;92.39;102681.16;10456216;28;20056;-67
2021/08/31 22:22:06;;;;;;;10.15;3.38;;;;;;;16.16;93.82;102696.56;10456418;28;20056;-67
2021/08/31 22:27:09;;;;;;;10.05;3.28;;;;;;;16.16;95.29;102700.03;10455705;28;20057;-67
2021/08/31 22:32:11;;;;;;;13.07;3.42;;;;;;;16.17;94.09;102692.97;10456687;28;20068;-67
2021/08/31 22:37:13;;;;;;;10.13;3.38;;;;;;;16.12;93.20;102700.25;10455752;28;20055;-67
2021/08/31 22:42:16;;;;;;;15.30;4.68;;;;;;;16.22;92.46;102696.22;10455975;28;20513;-68
2021/08/31 22:47:18;;;;;;;13.07;2.78;;;;;;;16.06;93.65;102697.94;10459121;28;20045;-66
2021/08/31 22:52:20;;;;;;;16.95;4.35;;;;;;;16.08;94.86;102702.22;10463594;28;20052;-67